Time;durP1;ratioP1;P1;durP2;ratioP2;P2;SDS_P1;SDS_P2;PMS_P1;PMS_P2;Temp;Humidity;BMP_temperature;BMP_pressure;BME280_temperature;BME280_humidity;BME280_pressure;Samples;Min_cycle;Max_cycle;Signal;HPM_P1;HPM_P2
2021/08/26 00:00:00;;;;;;;4.65;3.90;;;18.50;79.60;;;;;;5060840;28;20173;-85
2021/08/26 00:07:55;;;;;;;5.55;4.18;;;18.50;79.90;;;;;;5079290;28;20191;-85
2021/08/26 00:10:24;;;;;;;7.00;4.38;;;18.40;79.70;;;;;;5061676;28;20197;-86
2021/08/26 00:12:51;;;;;;;6.47;3.72;;;18.50;79.80;;;;;;5061881;28;20193;-83
2021/08/26 00:15:17;;;;;;;5.35;3.60;;;18.50;79.70;;;;;;5062358;28;20208;-85
2021/08/26 00:17:45;;;;;;;8.90;4.10;;;18.30;80.30;;;;;;5062474;28;20177;-85
2021/08/26 00:20:11;;;;;;;5.85;3.95;;;18.40;80.50;;;;;;5062042;28;20273;-83
2021/08/26 00:22:37;;;;;;;5.15;4.63;;;18.30;80.50;;;;;;5061531;28;20200;-85
2021/08/26 00:25:04;;;;;;;5.40;4.60;;;18.40;80.60;;;;;;5061890;28;20173;-86
2021/08/26 00:27:30;;;;;;;9.10;4.95;;;18.40;80.60;;;;;;5061461;28;20192;-86
2021/08/26 00:29:56;;;;;;;13.10;4.93;;;18.40;80.40;;;;;;5060017;28;20181;-87
2021/08/26 00:32:22;;;;;;;12.23;5.80;;;18.50;80.10;;;;;;5038871;28;20436;-87
2021/08/26 00:34:47;;;;;;;9.20;5.77;;;18.40;80.10;;;;;;5040000;28;20205;-87
2021/08/26 00:37:13;;;;;;;12.53;6.30;;;18.50;80.60;;;;;;5038635;28;20174;-88
2021/08/26 00:39:39;;;;;;;5.87;5.20;;;18.50;81.20;;;;;;5040260;28;20595;-87
2021/08/26 00:42:05;;;;;;;6.77;5.27;;;18.40;82.00;;;;;;5038786;28;20196;-85
2021/08/26 00:44:31;;;;;;;7.65;5.85;;;18.40;82.50;;;;;;5038854;28;20177;-85
2021/08/26 00:46:57;;;;;;;6.70;3.97;;;18.40;82.80;;;;;;5039076;28;20192;-85
2021/08/26 00:49:30;;;;;;;4.53;3.57;;;18.40;82.50;;;;;;5056469;28;20176;-87
2021/08/26 00:51:56;;;;;;;4.18;2.45;;;18.40;82.10;;;;;;5037733;28;20765;-87
2021/08/26 00:54:23;;;;;;;3.25;2.70;;;18.40;82.00;;;;;;5038321;28;20220;-86
2021/08/26 00:56:48;;;;;;;4.53;2.95;;;18.30;81.80;;;;;;5039722;28;20174;-86
2021/08/26 00:59:15;;;;;;;3.60;3.00;;;18.50;81.80;;;;;;5039336;28;20505;-87
2021/08/26 01:01:47;;;;;;;5.70;2.60;;;18.50;81.30;;;;;;5037966;28;20200;-87
2021/08/26 01:04:19;;;;;;;6.18;3.13;;;18.50;81.10;;;;;;5039289;28;20263;-89
2021/08/26 01:07:08;;;;;;;7.18;4.72;;;18.40;81.10;;;;;;5039137;28;20192;-87
2021/08/26 01:09:58;;;;;;;5.57;4.93;;;18.40;81.90;;;;;;4998972;28;20193;-88
2021/08/26 01:12:27;;;;;;;7.25;4.85;;;18.30;83.10;;;;;;5056797;28;20563;-87
2021/08/26 01:14:55;;;;;;;7.72;5.47;;;18.30;84.20;;;;;;5039257;28;20209;-86
2021/08/26 01:17:24;;;;;;;5.47;4.93;;;18.30;84.90;;;;;;5039998;28;20173;-87
2021/08/26 01:19:49;;;;;;;6.18;4.45;;;18.30;85.20;;;;;;5039295;28;20201;-87
2021/08/26 01:22:20;;;;;;;8.17;5.60;;;18.30;85.60;;;;;;5039329;28;20193;-87
2021/08/26 01:24:58;;;;;;;8.88;6.10;;;18.20;85.90;;;;;;5039035;28;20428;-87
2021/08/26 01:27:31;;;;;;;10.52;6.22;;;18.30;86.00;;;;;;5039106;28;20184;-87
2021/08/26 01:29:57;;;;;;;8.93;5.25;;;18.40;85.70;;;;;;5056644;28;20168;-87
2021/08/26 01:32:25;;;;;;;8.48;5.05;;;18.30;85.60;;;;;;5038003;28;20205;-87
2021/08/26 01:34:52;;;;;;;7.85;3.92;;;18.20;85.50;;;;;;5037732;28;20205;-88
2021/08/26 01:37:19;;;;;;;4.80;4.07;;;18.10;85.70;;;;;;5037714;28;20227;-88
2021/08/26 01:39:49;;;;;;;5.50;3.28;;;18.00;86.00;;;;;;5040008;28;20177;-85
2021/08/26 01:42:15;;;;;;;4.53;2.50;;;18.00;86.10;;;;;;5053509;28;20197;-86
2021/08/26 01:44:42;;;;;;;2.95;2.63;;;18.00;86.00;;;;;;5056257;28;20244;-86
2021/08/26 01:47:15;;;;;;;2.40;1.98;;;18.00;85.50;;;;;;5050602;28;20625;-86
2021/08/26 01:49:45;;;;;;;5.00;1.95;;;18.00;85.30;;;;;;5056520;28;20227;-88
2021/08/26 01:52:13;;;;;;;9.60;2.28;;;18.00;85.40;;;;;;5036442;28;20497;-88
2021/08/26 01:54:39;;;;;;;2.80;2.20;;;18.00;85.00;;;;;;5036993;28;20205;-86
2021/08/26 01:57:05;;;;;;;2.17;1.97;;;18.10;85.10;;;;;;5054960;28;20238;-86
2021/08/26 01:59:33;;;;;;;2.47;1.90;;;18.10;84.80;;;;;;5038164;28;20230;-87
2021/08/26 02:01:58;;;;;;;2.38;1.70;;;18.10;84.30;;;;;;5040153;28;20434;-85
2021/08/26 02:04:24;;;;;;;1.53;1.43;;;18.10;84.40;;;;;;5041931;28;20181;-85
2021/08/26 02:06:50;;;;;;;1.67;1.23;;;18.10;84.20;;;;;;5051836;28;20208;-86
2021/08/26 02:09:15;;;;;;;5.03;1.10;;;18.20;83.60;;;;;;5088793;28;20199;-85
2021/08/26 02:11:41;;;;;;;2.10;1.40;;;18.30;83.40;;;;;;5054982;28;20347;-86
2021/08/26 02:14:07;;;;;;;1.80;1.70;;;18.30;83.10;;;;;;5052249;28;20205;-87
2021/08/26 02:16:33;;;;;;;1.93;1.80;;;18.30;83.20;;;;;;5049788;28;20193;-87
2021/08/26 02:18:58;;;;;;;4.13;1.83;;;18.30;83.30;;;;;;5074397;28;20185;-87
2021/08/26 02:21:27;;;;;;;3.30;1.97;;;18.50;83.40;;;;;;5050971;28;20169;-87
2021/08/26 02:23:54;;;;;;;2.53;1.48;;;18.20;83.60;;;;;;5051511;28;20232;-86
2021/08/26 02:26:20;;;;;;;2.08;1.88;;;18.00;84.40;;;;;;5055167;28;20261;-85
2021/08/26 02:28:46;;;;;;;2.35;1.80;;;17.90;85.20;;;;;;5038293;28;20189;-86
2021/08/26 02:31:11;;;;;;;1.77;1.67;;;17.80;85.10;;;;;;5035499;28;20190;-88
2021/08/26 02:33:37;;;;;;;2.53;2.30;;;17.80;85.40;;;;;;5038109;28;20620;-88
2021/08/26 02:36:03;;;;;;;2.50;2.27;;;17.80;85.40;;;;;;5037874;28;20185;-87
2021/08/26 02:38:29;;;;;;;4.60;1.92;;;17.80;85.40;;;;;;5036243;28;20248;-88
2021/08/26 02:40:55;;;;;;;4.17;2.17;;;17.80;85.20;;;;;;5035924;28;20206;-87
2021/08/26 02:43:20;;;;;;;3.17;1.57;;;18.00;84.90;;;;;;5053960;28;20193;-87
2021/08/26 02:45:46;;;;;;;3.10;2.47;;;17.90;84.70;;;;;;5036057;28;20185;-88
2021/08/26 02:48:12;;;;;;;4.37;2.10;;;18.00;84.20;;;;;;5035934;28;20177;-87
2021/08/26 02:50:37;;;;;;;2.43;2.23;;;18.10;84.70;;;;;;5035741;28;20299;-87
2021/08/26 02:53:03;;;;;;;6.00;1.90;;;18.10;83.10;;;;;;5035455;28;20201;-87
2021/08/26 02:55:29;;;;;;;3.00;1.67;;;18.00;82.40;;;;;;5035945;28;20172;-88
2021/08/26 02:57:55;;;;;;;2.00;1.90;;;18.00;82.00;;;;;;5035814;28;20173;-87
2021/08/26 03:00:20;;;;;;;1.80;1.70;;;18.00;81.70;;;;;;5035977;28;20498;-87
2021/08/26 03:02:46;;;;;;;2.70;1.73;;;18.10;81.70;;;;;;5035329;28;20550;-87
2021/08/26 03:05:13;;;;;;;3.60;2.70;;;18.10;81.50;;;;;;5053816;28;20173;-87
2021/08/26 03:07:38;;;;;;;4.15;2.17;;;18.10;81.10;;;;;;5035943;28;20546;-87
2021/08/26 03:10:06;;;;;;;5.13;2.80;;;18.30;80.90;;;;;;5035680;28;20181;-87
2021/08/26 03:12:32;;;;;;;3.58;1.65;;;18.40;80.00;;;;;;5035693;28;20261;-87
2021/08/26 03:14:57;;;;;;;4.82;2.38;;;18.20;79.60;;;;;;5036126;28;20209;-86
2021/08/26 03:17:23;;;;;;;7.67;2.37;;;18.20;79.60;;;;;;5035887;28;20484;-87
2021/08/26 03:19:49;;;;;;;5.23;2.27;;;18.20;78.80;;;;;;5035393;28;20193;-87
2021/08/26 03:22:14;;;;;;;5.10;2.23;;;18.20;78.40;;;;;;5035414;28;20201;-87
2021/08/26 03:24:40;;;;;;;5.47;2.30;;;18.20;78.00;;;;;;5035812;28;20183;-87
2021/08/26 03:27:06;;;;;;;3.40;2.17;;;18.10;77.70;;;;;;5035598;28;20702;-87
2021/08/26 03:29:33;;;;;;;6.57;2.63;;;18.10;77.50;;;;;;5035660;28;20205;-87
2021/08/26 03:31:58;;;;;;;5.07;2.13;;;18.00;77.60;;;;;;5034933;28;20188;-87
2021/08/26 03:34:24;;;;;;;6.13;2.40;;;18.00;77.60;;;;;;5043909;28;20212;-86
2021/08/26 03:36:50;;;;;;;4.60;2.20;;;18.00;77.40;;;;;;5055199;28;20183;-86
2021/08/26 03:39:16;;;;;;;4.80;2.30;;;18.00;77.30;;;;;;5055985;28;20199;-86
2021/08/26 03:41:42;;;;;;;5.30;2.30;;;18.00;77.30;;;;;;5055542;28;20177;-85
2021/08/26 03:44:08;;;;;;;3.97;2.60;;;17.80;77.30;;;;;;5065395;28;20200;-85
2021/08/26 03:46:33;;;;;;;5.87;2.60;;;17.80;77.80;;;;;;5070652;28;20414;-86
2021/08/26 03:48:59;;;;;;;6.23;2.80;;;17.80;77.90;;;;;;5070708;28;20177;-86
2021/08/26 03:51:25;;;;;;;6.13;2.60;;;17.70;77.60;;;;;;5069898;28;20183;-87
2021/08/26 03:53:50;;;;;;;3.70;2.67;;;17.80;77.40;;;;;;5070210;28;20667;-86
2021/08/26 03:56:16;;;;;;;10.73;3.57;;;17.80;76.80;;;;;;5070279;28;20192;-86
2021/08/26 03:58:42;;;;;;;9.60;2.53;;;18.00;76.70;;;;;;5078381;28;20177;-87
2021/08/26 04:01:07;;;;;;;9.63;2.73;;;18.00;75.60;;;;;;5068507;28;20166;-87
2021/08/26 04:03:33;;;;;;;8.17;2.70;;;17.90;75.10;;;;;;5052433;28;20247;-86
2021/08/26 04:05:59;;;;;;;8.70;3.30;;;17.90;74.90;;;;;;5054901;28;20181;-86
2021/08/26 04:08:25;;;;;;;4.50;2.60;;;17.90;74.30;;;;;;5054399;28;20177;-86
2021/08/26 04:10:51;;;;;;;9.30;2.40;;;18.00;73.80;;;;;;5053928;28;20185;-87
2021/08/26 04:13:17;;;;;;;8.65;3.10;;;18.00;73.20;;;;;;5053764;28;20302;-86
2021/08/26 04:15:47;;;;;;;9.00;3.33;;;18.00;72.50;;;;;;5054159;28;20185;-85
2021/08/26 04:18:13;;;;;;;21.40;3.97;;;18.00;72.20;;;;;;5055366;28;20178;-87
2021/08/26 04:20:39;;;;;;;8.13;3.57;;;18.10;72.00;;;;;;5053793;28;20208;-86
2021/08/26 04:23:08;;;;;;;7.00;3.00;;;18.20;70.80;;;;;;5054876;28;20452;-86
2021/08/26 04:25:34;;;;;;;11.75;3.33;;;18.00;70.20;;;;;;5054873;28;20181;-87
2021/08/26 04:27:59;;;;;;;7.70;3.33;;;18.10;69.30;;;;;;5055206;28;20196;-87
2021/08/26 04:30:25;;;;;;;6.50;3.20;;;18.00;69.40;;;;;;5054739;28;20426;-87
2021/08/26 04:32:51;;;;;;;9.80;3.67;;;18.00;69.60;;;;;;5054784;28;20210;-87
2021/08/26 04:35:17;;;;;;;7.97;3.30;;;18.00;69.70;;;;;;5055443;28;20181;-86
2021/08/26 04:37:42;;;;;;;10.60;3.90;;;18.00;69.50;;;;;;5055074;28;20169;-87
2021/08/26 04:40:09;;;;;;;10.57;4.00;;;17.80;69.80;;;;;;5055681;28;20181;-85
2021/08/26 04:42:35;;;;;;;16.25;4.50;;;17.80;69.90;;;;;;5050870;28;20208;-87
2021/08/26 04:45:01;;;;;;;16.87;4.37;;;17.90;70.00;;;;;;5023498;28;20189;-87
2021/08/26 04:47:26;;;;;;;11.23;3.80;;;17.70;69.80;;;;;;5038319;28;20945;-87
2021/08/26 04:49:52;;;;;;;12.57;4.03;;;17.90;69.70;;;;;;5038370;28;20178;-86
2021/08/26 04:52:18;;;;;;;12.17;3.70;;;17.90;69.10;;;;;;5039837;28;20201;-86
2021/08/26 04:54:43;;;;;;;12.83;3.97;;;17.80;68.30;;;;;;5040476;28;20216;-87
2021/08/26 04:57:09;;;;;;;14.23;4.03;;;17.80;68.10;;;;;;5059323;28;20180;-86
2021/08/26 04:59:35;;;;;;;11.93;4.20;;;17.90;66.90;;;;;;5043033;28;20196;-86
2021/08/26 05:02:01;;;;;;;12.63;4.40;;;18.00;66.40;;;;;;5053672;28;20184;-85
2021/08/26 05:04:27;;;;;;;12.20;3.87;;;18.20;65.50;;;;;;5051110;28;20211;-87
2021/08/26 05:06:53;;;;;;;10.82;4.15;;;18.00;64.70;;;;;;5047258;28;20197;-86
2021/08/26 05:09:19;;;;;;;12.90;3.53;;;18.00;64.50;;;;;;5044942;28;20587;-86
2021/08/26 05:11:46;;;;;;;10.77;4.60;;;18.00;64.30;;;;;;5046087;28;20176;-86
2021/08/26 05:14:12;;;;;;;14.80;4.68;;;17.90;64.40;;;;;;5063887;28;20315;-87
2021/08/26 05:16:37;;;;;;;9.93;4.00;;;17.80;64.30;;;;;;5066447;28;20200;-86
2021/08/26 05:19:04;;;;;;;12.00;3.70;;;17.90;64.40;;;;;;5077361;28;20180;-85
2021/08/26 05:21:29;;;;;;;14.90;3.30;;;18.00;64.30;;;;;;5052749;28;20157;-85
2021/08/26 05:23:55;;;;;;;12.33;4.30;;;17.90;64.70;;;;;;5055135;28;20273;-87
2021/08/26 05:26:21;;;;;;;19.03;4.60;;;18.10;64.80;;;;;;5054648;28;20181;-88
2021/08/26 05:28:47;;;;;;;13.57;4.83;;;18.00;65.10;;;;;;5038993;28;20188;-88
2021/08/26 05:31:13;;;;;;;12.33;4.37;;;17.90;65.70;;;;;;5065184;28;20602;-86
2021/08/26 05:33:39;;;;;;;8.82;3.78;;;18.10;65.90;;;;;;5038769;28;20474;-88
2021/08/26 05:36:06;;;;;;;10.30;3.60;;;18.00;65.70;;;;;;5042576;28;20181;-88
2021/08/26 05:38:32;;;;;;;15.52;5.03;;;18.00;66.00;;;;;;5060141;28;20195;-83
2021/08/26 05:40:57;;;;;;;11.30;4.50;;;17.80;66.50;;;;;;5078152;28;20181;-84
2021/08/26 05:43:23;;;;;;;12.87;3.70;;;17.80;67.00;;;;;;5059939;28;20188;-87
2021/08/26 05:45:50;;;;;;;22.60;5.10;;;17.80;67.20;;;;;;5059741;28;20244;-86
2021/08/26 05:48:16;;;;;;;10.82;4.35;;;17.80;67.70;;;;;;5060437;28;20177;-86
2021/08/26 05:50:42;;;;;;;10.80;4.40;;;17.80;66.90;;;;;;5077911;28;20177;-87
2021/08/26 05:53:08;;;;;;;10.03;4.07;;;17.80;66.20;;;;;;5060004;28;20205;-85
2021/08/26 05:55:33;;;;;;;13.20;3.40;;;17.80;65.80;;;;;;5060441;28;20185;-86
2021/08/26 05:57:59;;;;;;;7.27;4.00;;;17.80;66.00;;;;;;5060141;28;20158;-85
2021/08/26 06:00:25;;;;;;;10.50;4.30;;;17.80;66.00;;;;;;5060356;28;20164;-84
2021/08/26 06:02:50;;;;;;;8.27;3.03;;;17.90;65.90;;;;;;5059770;28;20219;-87
2021/08/26 06:05:16;;;;;;;12.47;3.37;;;18.00;65.70;;;;;;5060407;28;20231;-87
2021/08/26 06:07:43;;;;;;;11.20;3.67;;;18.00;65.70;;;;;;5049049;28;20185;-88
2021/08/26 06:10:09;;;;;;;8.40;3.60;;;18.30;65.60;;;;;;5047702;28;20249;-88
2021/08/26 06:12:40;;;;;;;9.25;3.50;;;18.40;64.50;;;;;;5041283;28;20251;-87
2021/08/26 06:15:06;;;;;;;9.48;3.30;;;18.30;64.40;;;;;;5040285;28;20699;-86
2021/08/26 06:17:32;;;;;;;8.57;3.80;;;18.30;64.10;;;;;;5037568;28;20181;-86
2021/08/26 06:19:58;;;;;;;16.63;3.77;;;18.40;63.80;;;;;;5040590;28;20193;-85
2021/08/26 06:22:24;;;;;;;6.50;2.90;;;18.50;63.30;;;;;;5040502;28;20542;-85
2021/08/26 06:24:50;;;;;;;8.23;3.23;;;18.40;63.70;;;;;;5059784;28;20227;-84
2021/08/26 06:27:16;;;;;;;11.03;3.40;;;18.50;62.90;;;;;;5040078;28;20188;-86
2021/08/26 06:29:41;;;;;;;15.13;5.20;;;18.60;62.60;;;;;;5039299;28;20260;-84
2021/08/26 06:32:07;;;;;;;11.43;3.20;;;18.60;61.90;;;;;;5038846;28;20193;-87
2021/08/26 06:34:33;;;;;;;12.97;3.13;;;18.60;61.30;;;;;;5039717;28;20197;-85
2021/08/26 06:37:00;;;;;;;5.03;2.77;;;18.40;61.50;;;;;;5035721;28;20430;-86
2021/08/26 06:39:26;;;;;;;13.20;3.58;;;18.40;61.60;;;;;;5036957;28;20174;-87
2021/08/26 06:41:52;;;;;;;8.48;3.58;;;18.50;61.20;;;;;;5016689;28;20208;-86
2021/08/26 06:44:18;;;;;;;9.53;3.20;;;18.50;60.80;;;;;;5035751;28;20653;-87
2021/08/26 06:46:44;;;;;;;13.60;3.43;;;18.50;60.60;;;;;;5016748;28;20202;-87
2021/08/26 06:49:10;;;;;;;7.80;3.58;;;18.60;61.00;;;;;;5031879;28;20314;-86
2021/08/26 06:51:36;;;;;;;8.07;3.30;;;18.60;61.10;;;;;;5058278;28;20208;-87
2021/08/26 06:54:04;;;;;;;7.13;3.50;;;18.60;61.20;;;;;;5056470;28;20543;-86
2021/08/26 06:56:30;;;;;;;5.53;2.80;;;18.80;61.30;;;;;;5053437;28;20185;-87
2021/08/26 06:58:56;;;;;;;13.73;3.40;;;18.90;60.60;;;;;;5036777;28;20183;-87
2021/08/26 07:01:22;;;;;;;13.83;3.30;;;18.90;60.70;;;;;;5036729;28;20446;-88
2021/08/26 07:03:47;;;;;;;9.60;2.87;;;18.90;60.80;;;;;;5037136;28;20435;-88
2021/08/26 07:06:17;;;;;;;8.07;2.83;;;18.80;61.40;;;;;;5037421;28;20180;-87
2021/08/26 07:08:43;;;;;;;13.15;2.75;;;18.90;61.70;;;;;;5038706;28;20546;-87
2021/08/26 07:11:08;;;;;;;13.55;3.17;;;18.90;61.30;;;;;;5038820;28;20284;-88
2021/08/26 07:13:34;;;;;;;13.63;3.50;;;18.80;61.30;;;;;;5037404;28;20236;-86
2021/08/26 07:16:00;;;;;;;7.07;2.90;;;18.90;61.20;;;;;;5037937;28;20412;-87
2021/08/26 07:18:26;;;;;;;12.20;2.70;;;18.90;61.40;;;;;;5038925;28;20184;-87
2021/08/26 07:20:51;;;;;;;11.30;3.10;;;18.80;61.10;;;;;;5043149;28;20189;-87
2021/08/26 07:23:17;;;;;;;12.60;4.60;;;18.90;61.40;;;;;;5041765;28;20221;-89
2021/08/26 07:25:43;;;;;;;9.30;3.53;;;18.90;61.00;;;;;;5042443;28;20185;-87
2021/08/26 07:28:09;;;;;;;20.50;3.60;;;19.00;60.90;;;;;;5040975;28;20185;-87
2021/08/26 07:30:57;;;;;;;10.68;3.15;;;19.20;60.40;;;;;;5042938;28;20711;-85
2021/08/26 07:33:22;;;;;;;6.18;2.80;;;19.50;60.30;;;;;;5046644;28;20274;-86
2021/08/26 07:35:48;;;;;;;10.23;2.70;;;19.60;58.70;;;;;;5046771;28;20169;-86
2021/08/26 07:38:14;;;;;;;15.87;4.17;;;19.60;58.70;;;;;;5044705;28;20185;-85
2021/08/26 07:40:40;;;;;;;10.50;3.00;;;19.90;57.90;;;;;;5044018;28;20800;-86
2021/08/26 07:43:06;;;;;;;7.60;2.97;;;19.80;57.80;;;;;;5043516;28;20197;-87
2021/08/26 07:45:32;;;;;;;13.40;2.77;;;19.90;58.00;;;;;;5061792;28;20303;-86
2021/08/26 07:47:58;;;;;;;7.23;3.57;;;20.10;57.90;;;;;;5043082;28;20431;-86
2021/08/26 07:50:24;;;;;;;7.33;2.83;;;20.10;57.90;;;;;;5043061;28;20181;-85
2021/08/26 07:52:49;;;;;;;5.60;3.00;;;20.20;57.50;;;;;;5042727;28;20209;-86
2021/08/26 07:55:15;;;;;;;9.20;2.30;;;20.10;56.90;;;;;;5060891;28;20224;-85
2021/08/26 07:57:41;;;;;;;6.57;3.00;;;19.70;56.90;;;;;;5042314;28;20235;-85
2021/08/26 08:00:07;;;;;;;12.70;3.20;;;19.80;56.90;;;;;;5042843;28;20181;-86
2021/08/26 08:02:33;;;;;;;6.20;2.05;;;19.70;57.30;;;;;;5042353;28;20458;-87
2021/08/26 08:04:59;;;;;;;14.25;3.13;;;19.70;57.70;;;;;;5058180;28;20657;-88
2021/08/26 08:07:25;;;;;;;10.60;2.90;;;19.50;58.10;;;;;;5041881;28;20194;-86
2021/08/26 08:09:52;;;;;;;10.50;3.03;;;19.40;58.80;;;;;;5042126;28;20182;-86
2021/08/26 08:12:18;;;;;;;13.45;3.15;;;19.30;58.80;;;;;;5042547;28;20207;-87
2021/08/26 08:14:44;;;;;;;7.07;2.50;;;19.20;58.90;;;;;;5049396;28;20201;-86
2021/08/26 08:17:10;;;;;;;8.93;3.60;;;19.10;59.40;;;;;;5045607;28;20511;-86
2021/08/26 08:19:37;;;;;;;11.98;2.40;;;19.20;58.90;;;;;;5041203;28;20518;-87
2021/08/26 08:22:02;;;;;;;8.60;2.65;;;19.50;58.90;;;;;;5039875;28;20704;-87
2021/08/26 08:24:28;;;;;;;10.07;2.57;;;19.70;58.00;;;;;;5040863;28;20212;-86
2021/08/26 08:26:55;;;;;;;18.60;3.17;;;19.90;57.90;;;;;;5041212;28;20181;-87
2021/08/26 08:29:21;;;;;;;4.32;2.35;;;20.00;56.90;;;;;;5059176;28;20188;-86
2021/08/26 08:31:46;;;;;;;9.57;2.47;;;19.90;56.70;;;;;;5059899;28;20184;-86
2021/08/26 08:34:12;;;;;;;5.87;3.03;;;19.70;56.30;;;;;;5060900;28;20196;-87
2021/08/26 08:36:39;;;;;;;6.10;2.72;;;19.70;56.70;;;;;;5078013;28;20430;-86
2021/08/26 08:39:06;;;;;;;6.07;2.60;;;19.80;56.10;;;;;;5043524;28;20230;-86
2021/08/26 08:41:32;;;;;;;10.07;2.42;;;19.70;56.20;;;;;;5041852;28;20207;-86
2021/08/26 08:44:00;;;;;;;3.88;2.05;;;19.40;55.50;;;;;;5041810;28;20208;-86
2021/08/26 08:46:27;;;;;;;4.57;1.90;;;19.40;55.70;;;;;;5040748;28;20284;-86
2021/08/26 08:48:55;;;;;;;8.38;2.47;;;19.70;55.30;;;;;;5058194;28;20173;-86
2021/08/26 08:51:23;;;;;;;5.88;1.75;;;19.80;54.70;;;;;;5041842;28;20181;-86
2021/08/26 08:53:49;;;;;;;12.20;2.28;;;19.80;55.00;;;;;;5040024;28;20232;-86
2021/08/26 08:56:16;;;;;;;3.47;1.85;;;19.90;53.50;;;;;;5040024;28;20261;-87
2021/08/26 08:58:42;;;;;;;8.88;2.28;;;19.70;53.40;;;;;;5040476;28;20197;-86
2021/08/26 09:01:09;;;;;;;7.13;1.87;;;19.90;53.20;;;;;;5039800;28;20536;-86
2021/08/26 09:03:38;;;;;;;8.30;1.92;;;20.00;53.20;;;;;;5041529;28;20432;-86
2021/08/26 09:06:05;;;;;;;7.53;2.33;;;20.10;53.30;;;;;;5042974;28;20182;-86
2021/08/26 09:08:32;;;;;;;11.43;2.20;;;19.90;53.40;;;;;;5043734;28;20244;-87
2021/08/26 09:11:20;;;;;;;4.85;1.83;;;19.80;54.00;;;;;;5043674;28;20200;-86
2021/08/26 09:13:47;;;;;;;12.10;2.08;;;19.80;54.50;;;;;;5047928;28;20196;-86
2021/08/26 09:16:14;;;;;;;9.60;2.70;;;19.90;54.40;;;;;;5051759;28;20177;-86
2021/08/26 09:18:41;;;;;;;6.45;1.95;;;19.90;54.40;;;;;;5058078;28;20174;-86
2021/08/26 09:21:11;;;;;;;6.57;1.90;;;20.00;54.50;;;;;;5059491;28;20239;-86
2021/08/26 09:23:54;;;;;;;5.22;2.00;;;20.10;54.00;;;;;;5059155;28;20269;-86
2021/08/26 09:26:25;;;;;;;6.20;1.90;;;20.60;53.40;;;;;;5060628;28;20166;-85
2021/08/26 09:28:52;;;;;;;5.35;2.10;;;20.70;53.30;;;;;;5039298;28;20212;-87
2021/08/26 09:31:21;;;;;;;7.60;2.17;;;20.90;52.00;;;;;;5038782;28;20196;-86
2021/08/26 09:33:49;;;;;;;7.50;1.80;;;21.10;51.80;;;;;;5038883;28;20231;-86
2021/08/26 09:36:31;;;;;;;6.15;2.60;;;21.30;51.40;;;;;;5041251;28;20188;-86
2021/08/26 09:39:04;;;;;;;7.38;3.60;;;21.00;51.20;;;;;;5040570;28;20659;-86
2021/08/26 09:41:38;;;;;;;5.53;2.78;;;20.60;52.10;;;;;;5048109;28;20196;-86
2021/08/26 09:44:05;;;;;;;5.50;2.00;;;20.70;52.80;;;;;;5060307;28;20200;-86
2021/08/26 09:46:33;;;;;;;7.78;2.10;;;20.70;53.10;;;;;;5055384;28;20189;-86
2021/08/26 09:49:07;;;;;;;7.57;2.55;;;20.80;53.50;;;;;;5038834;28;20227;-85
2021/08/26 09:51:33;;;;;;;11.70;2.55;;;20.70;54.70;;;;;;5039158;28;20215;-86
2021/08/26 09:54:00;;;;;;;11.43;2.50;;;20.70;55.40;;;;;;5041367;28;20262;-85
2021/08/26 09:56:37;;;;;;;8.85;3.17;;;20.60;55.80;;;;;;5038931;28;20237;-85
2021/08/26 09:59:06;;;;;;;14.13;2.22;;;20.60;55.80;;;;;;5039546;28;20169;-85
2021/08/26 10:01:36;;;;;;;8.30;2.45;;;20.80;54.90;;;;;;5038189;28;20675;-86
2021/08/26 10:04:03;;;;;;;7.63;2.40;;;20.50;54.90;;;;;;5039307;28;20205;-85
2021/08/26 10:06:30;;;;;;;4.35;2.30;;;20.50;55.50;;;;;;5054681;28;20188;-84
2021/08/26 10:08:56;;;;;;;4.32;1.90;;;20.60;55.40;;;;;;5059524;28;20180;-86
2021/08/26 10:11:23;;;;;;;5.32;2.00;;;20.50;54.80;;;;;;5063043;28;20265;-87
2021/08/26 10:13:50;;;;;;;5.70;1.98;;;20.40;54.80;;;;;;5059723;28;20204;-86
2021/08/26 10:16:16;;;;;;;4.13;1.95;;;20.30;55.70;;;;;;5060459;28;20623;-86
2021/08/26 10:18:42;;;;;;;6.68;2.13;;;20.10;57.00;;;;;;5059951;28;20239;-86
2021/08/26 10:21:09;;;;;;;7.32;2.17;;;20.10;57.70;;;;;;5059797;28;20181;-87
2021/08/26 10:23:44;;;;;;;5.57;2.28;;;20.00;58.20;;;;;;5077469;28;20207;-84
2021/08/26 10:26:15;;;;;;;6.97;1.80;;;20.10;57.80;;;;;;5059982;28;20179;-85
2021/08/26 10:28:42;;;;;;;6.03;1.90;;;20.30;57.30;;;;;;5060381;28;20236;-85
2021/08/26 10:31:31;;;;;;;3.38;1.40;;;20.30;56.10;;;;;;5060440;28;20177;-86
2021/08/26 10:34:24;;;;;;;3.08;1.63;;;20.50;55.60;;;;;;5045396;28;20303;-86
2021/08/26 10:36:58;;;;;;;2.30;1.42;;;20.60;55.40;;;;;;5023313;28;20181;-87
2021/08/26 10:39:36;;;;;;;6.32;1.40;;;20.70;55.10;;;;;;5043817;28;20240;-86
2021/08/26 10:42:17;;;;;;;6.00;1.63;;;20.90;55.20;;;;;;5041268;28;20644;-86
2021/08/26 10:45:20;;;;;;;7.50;2.40;;;20.90;54.70;;;;;;5037772;28;20631;-86
2021/08/26 10:47:49;;;;;;;8.00;2.08;;;20.80;55.60;;;;;;5055638;28;20184;-86
2021/08/26 10:50:28;;;;;;;3.00;1.67;;;20.90;56.80;;;;;;5038170;28;20223;-86
2021/08/26 10:53:04;;;;;;;5.18;1.95;;;21.00;56.90;;;;;;5064497;28;20250;-85
2021/08/26 10:55:34;;;;;;;8.07;2.30;;;21.00;56.30;;;;;;5037812;28;20173;-85
2021/08/26 10:58:21;;;;;;;9.05;1.92;;;21.10;56.20;;;;;;5039787;28;20499;-86
2021/08/26 11:01:04;;;;;;;5.15;1.80;;;21.20;55.40;;;;;;5037105;28;20276;-86
2021/08/26 11:03:36;;;;;;;4.40;2.13;;;21.40;55.20;;;;;;5032904;28;20200;-85
2021/08/26 11:06:17;;;;;;;6.67;1.97;;;21.30;55.50;;;;;;5038391;28;20426;-85
2021/08/26 11:08:45;;;;;;;5.35;1.50;;;21.20;55.50;;;;;;5070583;28;20471;-85
2021/08/26 11:11:29;;;;;;;7.28;1.92;;;21.10;55.40;;;;;;5056637;28;20199;-86
2021/08/26 11:14:07;;;;;;;8.98;2.00;;;21.00;55.10;;;;;;5031851;28;20193;-86
2021/08/26 11:16:34;;;;;;;3.40;2.25;;;20.60;56.40;;;;;;5037030;28;20169;-85
2021/08/26 11:19:07;;;;;;;4.63;1.45;;;20.50;57.30;;;;;;5037988;28;20277;-85
2021/08/26 11:21:45;;;;;;;9.43;1.75;;;20.30;58.50;;;;;;5037530;28;20167;-85
2021/08/26 11:24:22;;;;;;;3.10;2.20;;;20.20;59.10;;;;;;5038288;28;20191;-85
2021/08/26 11:26:53;;;;;;;3.80;1.50;;;20.30;59.30;;;;;;5039498;28;20173;-85
2021/08/26 11:29:25;;;;;;;7.70;2.03;;;20.30;59.60;;;;;;5039417;28;20227;-85
2021/08/26 11:31:53;;;;;;;3.83;1.80;;;20.50;59.20;;;;;;5040064;28;20178;-85
2021/08/26 11:34:27;;;;;;;5.93;1.40;;;20.80;57.00;;;;;;5041580;28;20623;-85
2021/08/26 11:37:19;;;;;;;4.20;1.53;;;20.80;55.80;;;;;;5048090;28;20527;-85
2021/08/26 11:40:00;;;;;;;5.68;1.88;;;20.90;55.10;;;;;;5058925;28;20418;-85
2021/08/26 11:42:31;;;;;;;5.07;1.40;;;20.80;55.20;;;;;;5058240;28;20300;-84
2021/08/26 11:45:08;;;;;;;5.23;1.97;;;21.10;55.30;;;;;;5059348;28;20495;-85
2021/08/26 11:47:36;;;;;;;1.90;1.30;;;21.10;54.70;;;;;;5076610;28;20423;-84
2021/08/26 11:50:13;;;;;;;7.30;1.90;;;21.20;54.90;;;;;;5059049;28;20469;-84
2021/08/26 11:52:39;;;;;;;6.70;2.80;;;21.10;54.80;;;;;;5058829;28;20469;-85
2021/08/26 11:55:05;;;;;;;7.65;3.03;;;20.90;56.90;;;;;;5059420;28;20459;-85
2021/08/26 11:57:31;;;;;;;7.90;3.35;;;20.60;58.50;;;;;;5059028;28;20170;-85
2021/08/26 12:00:06;;;;;;;3.17;2.20;;;20.60;59.30;;;;;;5058919;28;20180;-84
2021/08/26 12:02:33;;;;;;;7.72;2.42;;;20.40;59.80;;;;;;5058058;28;20454;-85
2021/08/26 12:05:01;;;;;;;7.90;2.22;;;20.40;59.80;;;;;;5060423;28;20191;-86
2021/08/26 12:07:33;;;;;;;5.57;2.78;;;20.50;59.80;;;;;;5061795;28;20185;-84
2021/08/26 12:10:08;;;;;;;4.22;2.33;;;20.70;58.90;;;;;;5058084;28;20197;-86
2021/08/26 12:12:34;;;;;;;4.25;2.20;;;20.50;58.90;;;;;;5042414;28;20207;-86
2021/08/26 12:15:01;;;;;;;5.00;1.65;;;20.60;57.70;;;;;;5044552;28;20201;-84
2021/08/26 12:17:27;;;;;;;9.73;1.90;;;20.60;57.10;;;;;;5054320;28;20183;-84
2021/08/26 12:19:55;;;;;;;4.28;1.88;;;20.60;55.30;;;;;;5073746;28;20189;-84
2021/08/26 12:22:24;;;;;;;3.88;1.60;;;20.60;54.90;;;;;;5041821;28;20292;-85
2021/08/26 12:24:52;;;;;;;4.75;2.00;;;20.60;54.90;;;;;;5060201;28;20204;-84
2021/08/26 12:27:18;;;;;;;6.60;2.03;;;20.70;55.10;;;;;;5042459;28;20243;-85
2021/08/26 12:29:47;;;;;;;4.90;2.13;;;20.80;54.60;;;;;;5040614;28;20201;-84
2021/08/26 12:32:35;;;;;;;6.60;2.37;;;20.90;54.00;;;;;;5041665;28;20436;-84
2021/08/26 12:35:16;;;;;;;4.13;1.87;;;21.10;53.50;;;;;;5042500;28;20459;-85
2021/08/26 12:38:00;;;;;;;9.67;1.90;;;21.10;53.50;;;;;;5044021;28;20422;-85
2021/08/26 12:40:46;;;;;;;3.05;2.05;;;20.90;54.10;;;;;;5041992;28;20424;-84
2021/08/26 12:43:12;;;;;;;7.18;1.90;;;20.70;54.50;;;;;;5023042;28;20202;-85
2021/08/26 12:45:38;;;;;;;7.68;2.08;;;20.70;54.60;;;;;;5022281;28;20169;-85
2021/08/26 12:48:24;;;;;;;6.97;2.50;;;20.60;54.50;;;;;;5024531;28;20236;-85
2021/08/26 12:51:05;;;;;;;5.75;2.17;;;20.60;54.10;;;;;;5026866;28;20215;-85
2021/08/26 12:53:31;;;;;;;5.00;2.30;;;20.60;54.40;;;;;;5037187;28;20212;-84
2021/08/26 12:56:10;;;;;;;4.30;2.40;;;20.80;54.20;;;;;;5033875;28;20177;-85